createdAt,value
2023-05-28T00:00:10.326Z,64
2023-05-28T00:15:00.555Z,65
2023-05-28T00:30:00.584Z,65
2023-05-28T00:45:00.627Z,66
2023-05-28T01:00:00.518Z,66
2023-05-28T01:15:00.628Z,66
2023-05-28T01:30:00.563Z,67
2023-05-28T01:45:00.553Z,67
2023-05-28T02:00:00.578Z,67
2023-05-28T02:15:00.602Z,68
2023-05-28T02:30:00.673Z,68
2023-05-28T02:45:00.559Z,68
2023-05-28T03:00:00.533Z,69
2023-05-28T03:15:00.537Z,69
2023-05-28T03:30:00.543Z,69
2023-05-28T03:45:00.601Z,69
2023-05-28T04:00:00.555Z,71
2023-05-28T04:15:00.594Z,71
2023-05-28T04:30:00.608Z,71
2023-05-28T04:45:00.560Z,72
2023-05-28T05:00:00.605Z,72
2023-05-28T05:15:00.573Z,73
2023-05-28T05:30:00.577Z,74
2023-05-28T05:45:00.589Z,74
2023-05-28T06:00:00.522Z,74
2023-05-28T06:15:00.620Z,72
2023-05-28T06:30:00.551Z,66
2023-05-28T06:45:00.566Z,62
2023-05-28T07:00:00.535Z,59
2023-05-28T07:15:00.528Z,56
2023-05-28T07:30:00.617Z,55
2023-05-28T07:45:00.565Z,52
2023-05-28T08:00:00.560Z,51
2023-05-28T08:15:00.560Z,51
2023-05-28T08:30:00.609Z,49
2023-05-28T08:45:00.585Z,50
2023-05-28T09:00:00.567Z,48
2023-05-28T09:15:00.600Z,47
2023-05-28T09:30:00.725Z,47
2023-05-28T09:45:02.621Z,47
2023-05-28T10:00:00.677Z,45
2023-05-28T10:15:00.502Z,45
2023-05-28T10:30:00.575Z,46
2023-05-28T10:45:00.561Z,46
2023-05-28T11:00:00.584Z,45
2023-05-28T11:15:00.591Z,46
2023-05-28T11:30:01.302Z,45
2023-05-28T11:45:00.568Z,45
2023-05-28T12:00:00.547Z,44
2023-05-28T12:15:00.518Z,45
2023-05-28T12:30:00.592Z,44
2023-05-28T12:45:00.713Z,46
2023-05-28T13:00:00.532Z,44
2023-05-28T13:15:00.560Z,45
2023-05-28T13:30:00.592Z,45
2023-05-28T13:45:00.525Z,45
2023-05-28T14:00:00.579Z,45
2023-05-28T14:15:00.555Z,45
2023-05-28T18:00:00.595Z,50
2023-05-28T18:15:00.543Z,52
2023-05-28T18:30:00.535Z,54
2023-05-28T18:45:00.575Z,55
2023-05-28T19:00:00.592Z,56
2023-05-28T19:15:00.769Z,57
2023-05-28T19:30:00.674Z,58
2023-05-28T19:45:00.548Z,58
2023-05-28T20:00:00.561Z,59
2023-05-28T20:15:00.617Z,60
2023-05-28T20:30:00.561Z,60
2023-05-28T20:45:00.518Z,61
2023-05-28T21:00:00.695Z,61
2023-05-28T21:15:00.570Z,62
2023-05-28T21:30:00.610Z,63
2023-05-28T21:45:00.571Z,63
2023-05-28T22:00:00.530Z,65
2023-05-28T22:15:00.509Z,65
2023-05-28T22:30:00.543Z,65
2023-05-28T22:45:00.592Z,65
2023-05-28T23:00:00.511Z,65
2023-05-28T23:15:00.677Z,66
2023-05-28T23:30:00.538Z,66
2023-05-28T23:45:00.719Z,66
